Decoded Metar for KJLN (JOPLIN in MO, USA) (IATA:JLN) | Meteo·Mobile Aviation Weather
aviador You're here:

KJLN Decoded Metar

JOPLIN in MO, USA
Report Time2018-10-20 05:41:00
UTC Time2018-10-20 06:01:46
Flight Rules lifr LIFR
Wind250° at 07 kt
W.Decomp.*RWY 23: 6.7 kt HW 1.9 kt RCW
RWY 31: 3.1 kt HW 6.3 kt LCW
RWY 18: 2.8 kt HW 6.4 kt RCW
W.Rank250° ranks 35
Current wind is below 250° avg. (8.1)
Visibility1207 m
Phenomena:Mist
Clouds:N/A
Ceiling200 ft
Temp12°C (ISA -1)
Dew Point12°C (100% RH)
AAT10.1°C
QNH1021 hPa
Density Alt778 ft
Elevation981 ft
Report Wrong Elevation
Raw Report
KJLN 200541Z AUTO 25007KT 3/4SM BR VV002 12/12 A3016=

Extra information for KJLN:More info

Metar Taf Metar & Taf Last 4 Metars F.Rules Stats Wind Profile Meteogram Temp Stats Airport Information Weather charts Add Link Nearby VenuesMetar ALERT Operation Metar Decoded Social comments

AIRNAV info for KJLN